Airfield :
LOGIN :

Register | Disclaimer

   EN    FR    IT 

 










Legend :    VFR   Marginal VFR   IFR   Intensive IFR   Very Intensive IFR
Visi :
Ceiling :
>= 8 km
>= 3000ft
5 to 8 km
1000 to 3000 ft
1500m to 5 km
500 to 1000 ft
800 to 1500m
200 to 500 ft
< 800m
< 200 ft
Symbols :   Thunderstorms  Fog  Heavy snow  Heavy precipitations  Wind > 20 kt
SIGMETs :     Misc.  Thunderstorms  Icing  Turbulence  Mountain Waves  Volcanic Ashes







- Airport Elevation : 72 ft
- IATA code : UDE


EHVK - Volkel Airbase

CURRENT METAR :
  • 192055Z AUTO 00000KT 9999 BKN400 08/06 Q1031 BLU

EXPIRED METARs :
  • 192025Z AUTO 34001KT 9999 OVC370 09/07 Q1030 BLU
  • 191955Z AUTO 00000KT 9999 OVC380 09/07 Q1030 BLU
  • 191925Z AUTO 35002KT 9999 OVC350 10/07 Q1030 BLU
  • 191855Z AUTO VRB02KT 9999 OVC350 10/06 Q1030 BLU
  • 191825Z AUTO 35003KT 9999 OVC370 12/07 Q1030 BLU

TAF COR TAF EHVK
Valid from the 19 at 17:00 until the 20 at 05:00 UTC


191709Z 1917/2005 03005KT 9999 SCT040
BECMG 1919/1921 VRB02KT
PROB30
TEMPO 2000/2006 3500 MIFG BR
No reported NOTAMs for that airfield.



MET'MAP, your aeronautical weather chart ! - Copyright ORBIFLY December 2007 - Disclaimer

ORBIFLY MET'MAP TEAM :

Programming & Development : Alexandra Zaïnal
Concept & Development : Baudouin d'Aumeries
Co-Development & Prog : Marc-Olivier Méhu
Technical & hardware support : Manuel Goepfert

Contact : metmap@orbifly.com




SOURCES & CREDITS :

   NOAA